createdAt,value
2018-06-08T00:00:28.010Z,30.00
2018-06-08T00:02:56.190Z,31.03
2018-06-08T00:05:24.357Z,32.57
2018-06-08T00:07:52.549Z,30.17
2018-06-08T00:10:20.728Z,30.20
2018-06-08T00:12:48.932Z,27.97
2018-06-08T00:15:17.105Z,29.20
2018-06-08T00:17:45.295Z,25.97
2018-06-08T00:20:13.454Z,27.73
2018-06-08T00:22:41.641Z,38.50
2018-06-08T00:25:09.893Z,28.97
2018-06-08T00:27:38.093Z,37.60
2018-06-08T00:32:40.918Z,30.97
2018-06-08T00:35:09.088Z,31.80
2018-06-08T00:37:37.249Z,29.10
2018-06-08T00:40:05.427Z,28.50
2018-06-08T00:42:33.614Z,25.50
2018-06-08T00:45:01.783Z,26.33
2018-06-08T00:47:29.966Z,53.80
2018-06-08T00:49:58.152Z,27.10
2018-06-08T00:52:26.303Z,25.50
2018-06-08T00:54:54.478Z,27.23
2018-06-08T00:57:22.671Z,27.67
2018-06-08T00:59:50.833Z,28.20
2018-06-08T01:02:19.013Z,26.87
2018-06-08T01:04:47.202Z,33.60
2018-06-08T01:07:15.386Z,26.87
2018-06-08T01:09:43.579Z,27.33
2018-06-08T01:12:11.749Z,27.40
2018-06-08T01:14:39.913Z,32.33
2018-06-08T01:17:08.077Z,24.00
2018-06-08T01:19:36.295Z,24.23
2018-06-08T01:22:04.475Z,26.73
2018-06-08T01:24:32.917Z,26.23
2018-06-08T01:27:01.083Z,27.60
2018-06-08T01:29:29.261Z,26.27
2018-06-08T01:31:57.425Z,28.27
2018-06-08T01:34:25.620Z,28.73
2018-06-08T01:36:53.826Z,26.40
2018-06-08T01:39:22.007Z,27.97
2018-06-08T01:41:50.171Z,26.53
2018-06-08T01:44:18.357Z,25.07
2018-06-08T01:46:46.583Z,26.00
2018-06-08T01:49:14.746Z,26.43
2018-06-08T01:51:42.900Z,26.77
2018-06-08T01:54:11.361Z,27.80
2018-06-08T01:56:39.588Z,28.60
2018-06-08T01:59:07.737Z,30.57
2018-06-08T02:01:35.905Z,27.57
2018-06-08T02:04:04.097Z,30.73
2018-06-08T02:06:32.278Z,31.10
2018-06-08T02:09:00.438Z,32.20
2018-06-08T02:11:28.594Z,28.30
2018-06-08T02:13:56.769Z,32.10
2018-06-08T02:16:24.952Z,32.77
2018-06-08T02:18:53.114Z,31.40
2018-06-08T02:21:21.285Z,33.67
2018-06-08T02:23:49.469Z,31.47
2018-06-08T02:26:17.641Z,31.90
2018-06-08T02:28:52.605Z,32.70
2018-06-08T02:31:20.775Z,32.77
2018-06-08T02:33:48.917Z,31.27
2018-06-08T02:36:17.090Z,30.10
2018-06-08T02:38:45.265Z,30.60
2018-06-08T02:41:13.433Z,31.60
2018-06-08T02:43:41.603Z,31.20
2018-06-08T02:46:09.791Z,32.40
2018-06-08T02:48:38.014Z,31.30
2018-06-08T02:51:06.221Z,32.50
2018-06-08T02:53:34.413Z,29.10
2018-06-08T02:56:02.613Z,30.30
2018-06-08T02:58:30.805Z,31.10
2018-06-08T03:00:59.053Z,31.97
2018-06-08T03:03:27.307Z,30.70
2018-06-08T03:05:55.517Z,30.87
2018-06-08T03:08:23.709Z,30.30
2018-06-08T03:10:51.982Z,33.20
2018-06-08T03:13:20.193Z,31.20
2018-06-08T03:15:48.394Z,30.60
2018-06-08T03:18:16.697Z,29.07
2018-06-08T03:20:44.957Z,30.97
2018-06-08T03:23:13.162Z,32.17
2018-06-08T03:25:41.388Z,34.83
2018-06-08T03:28:09.580Z,33.37
2018-06-08T03:30:37.786Z,32.97
2018-06-08T03:33:06.037Z,34.73
2018-06-08T03:35:34.245Z,33.80
2018-06-08T03:38:02.490Z,32.20
2018-06-08T03:40:30.713Z,34.27
2018-06-08T03:42:58.929Z,33.33
2018-06-08T03:45:27.141Z,36.20
2018-06-08T03:47:55.373Z,31.43
2018-06-08T03:50:23.595Z,32.40
2018-06-08T03:52:51.585Z,33.57
2018-06-08T03:55:19.845Z,30.37
2018-06-08T03:57:48.078Z,34.00
2018-06-08T04:00:16.281Z,30.07
2018-06-08T04:02:44.513Z,31.30
2018-06-08T04:05:12.733Z,30.60
2018-06-08T04:07:40.935Z,31.97
2018-06-08T04:10:09.169Z,30.37
2018-06-08T04:12:37.341Z,30.30
2018-06-08T04:15:05.646Z,31.33
2018-06-08T04:17:33.909Z,33.70
2018-06-08T04:20:02.134Z,33.20
2018-06-08T04:22:31.165Z,32.33
2018-06-08T04:24:59.366Z,32.47
2018-06-08T04:27:27.601Z,35.20
2018-06-08T04:29:55.805Z,33.83
2018-06-08T04:32:24.014Z,31.73
2018-06-08T04:34:52.245Z,32.37
2018-06-08T04:37:20.450Z,31.43
2018-06-08T04:39:48.666Z,31.43
2018-06-08T04:42:16.880Z,36.30
2018-06-08T04:44:45.073Z,30.50
2018-06-08T04:47:13.277Z,32.77
2018-06-08T04:49:41.454Z,33.93
2018-06-08T04:52:09.673Z,34.03
2018-06-08T04:54:37.845Z,35.17
2018-06-08T04:57:06.052Z,32.30
2018-06-08T04:59:34.225Z,32.87
2018-06-08T05:02:02.395Z,32.20
2018-06-08T05:04:30.576Z,30.40
2018-06-08T05:06:58.748Z,30.77
2018-06-08T05:09:26.997Z,33.47
2018-06-08T05:11:55.173Z,29.57
2018-06-08T05:14:23.391Z,31.00
2018-06-08T05:16:51.661Z,29.63
2018-06-08T05:19:19.874Z,31.87
2018-06-08T05:21:48.062Z,32.30
2018-06-08T05:24:16.241Z,30.97
2018-06-08T05:26:44.497Z,31.03
2018-06-08T05:29:12.698Z,31.23
2018-06-08T05:31:40.959Z,30.00
2018-06-08T05:34:09.121Z,31.83
2018-06-08T05:36:37.341Z,33.43
2018-06-08T05:39:08.358Z,38.90
2018-06-08T05:41:36.753Z,44.53
2018-06-08T05:44:05.046Z,33.53
2018-06-08T05:46:33.526Z,29.27
2018-06-08T05:49:01.686Z,30.17
2018-06-08T05:51:29.886Z,31.67
2018-06-08T05:53:58.049Z,31.93
2018-06-08T05:56:26.227Z,31.07
2018-06-08T06:01:28.974Z,30.87
2018-06-08T06:03:57.132Z,28.90
2018-06-08T06:06:25.323Z,32.20
2018-06-08T06:08:53.538Z,31.27
2018-06-08T06:11:21.706Z,30.73
2018-06-08T06:13:49.912Z,27.80
2018-06-08T06:16:18.066Z,28.17
2018-06-08T06:18:46.237Z,29.77
2018-06-08T06:21:14.451Z,26.73
2018-06-08T06:23:42.613Z,28.10
2018-06-08T06:26:10.786Z,27.43
2018-06-08T06:28:38.981Z,25.90
2018-06-08T06:31:07.234Z,27.87
2018-06-08T06:33:35.418Z,26.27
2018-06-08T06:36:03.645Z,38.07
2018-06-08T06:38:31.875Z,27.07
2018-06-08T06:41:00.029Z,21.20
2018-06-08T06:43:28.189Z,24.17
2018-06-08T06:45:56.363Z,24.13
2018-06-08T06:48:24.546Z,22.97
2018-06-08T06:50:53.630Z,22.97
2018-06-08T06:53:21.804Z,24.57
2018-06-08T06:55:49.994Z,22.43
2018-06-08T06:58:18.167Z,22.03
2018-06-08T07:00:46.342Z,22.80
2018-06-08T07:03:14.514Z,24.10
2018-06-08T07:05:42.689Z,22.83
2018-06-08T07:08:10.920Z,21.60
2018-06-08T07:10:39.112Z,21.70
2018-06-08T07:13:07.274Z,20.53
2018-06-08T07:15:35.494Z,19.03
2018-06-08T07:18:03.685Z,23.93
2018-06-08T07:20:31.849Z,19.80
2018-06-08T07:22:59.997Z,19.10
2018-06-08T07:25:28.173Z,18.83
2018-06-08T07:27:56.358Z,21.50
2018-06-08T07:30:24.519Z,20.33
2018-06-08T07:32:52.697Z,21.50
2018-06-08T07:35:20.880Z,41.10
2018-06-08T07:37:49.061Z,22.87
2018-06-08T07:40:17.255Z,22.30
2018-06-08T07:42:45.394Z,27.33
2018-06-08T07:45:13.569Z,21.60
2018-06-08T07:47:41.511Z,20.93
2018-06-08T07:50:09.449Z,20.13
2018-06-08T07:52:37.657Z,22.97
2018-06-08T07:55:06.088Z,29.10
2018-06-08T07:57:34.270Z,28.83
2018-06-08T08:00:02.506Z,27.20
2018-06-08T08:02:30.662Z,20.83
2018-06-08T08:04:58.936Z,21.10
2018-06-08T08:07:27.101Z,24.30
2018-06-08T08:09:55.297Z,20.63
2018-06-08T08:12:23.623Z,22.23
2018-06-08T08:14:51.878Z,23.47
2018-06-08T08:17:20.041Z,17.77
2018-06-08T08:19:48.234Z,23.20
2018-06-08T08:22:16.410Z,22.67
2018-06-08T08:24:44.583Z,22.17
2018-06-08T08:27:12.761Z,23.60
2018-06-08T08:29:40.938Z,24.27
2018-06-08T08:32:09.152Z,23.40
2018-06-08T08:34:37.346Z,23.53
2018-06-08T08:37:05.549Z,22.70
2018-06-08T08:39:33.719Z,19.93
2018-06-08T08:42:01.925Z,20.90
2018-06-08T08:44:30.093Z,20.80
2018-06-08T08:46:58.269Z,22.33
2018-06-08T08:49:26.475Z,23.63
2018-06-08T08:51:54.691Z,22.97
2018-06-08T08:54:22.909Z,21.63
2018-06-08T08:56:51.173Z,23.63
2018-06-08T08:59:19.377Z,23.83
2018-06-08T09:01:47.562Z,21.23
2018-06-08T09:04:15.787Z,23.20
2018-06-08T09:06:44.033Z,20.57
2018-06-08T09:09:12.249Z,21.50
2018-06-08T09:11:40.468Z,24.10
2018-06-08T09:14:08.667Z,21.13
2018-06-08T09:16:36.948Z,20.40
2018-06-08T09:19:05.198Z,17.53
2018-06-08T09:21:33.426Z,22.07
2018-06-08T09:24:01.722Z,18.33
2018-06-08T09:26:29.933Z,23.23
2018-06-08T09:28:58.127Z,18.57
2018-06-08T09:31:26.390Z,21.10
2018-06-08T09:33:54.573Z,21.50
2018-06-08T09:36:22.786Z,20.13
2018-06-08T09:38:51.002Z,19.90
2018-06-08T09:41:19.236Z,19.00
2018-06-08T09:43:47.456Z,21.23
2018-06-08T09:46:15.724Z,17.67
2018-06-08T09:48:43.941Z,18.23
2018-06-08T09:51:12.197Z,15.30
2018-06-08T09:53:40.907Z,19.53
2018-06-08T09:56:09.101Z,19.77
2018-06-08T09:58:37.305Z,22.40
2018-06-08T10:01:05.565Z,20.00
2018-06-08T10:03:33.755Z,19.40
2018-06-08T10:06:01.986Z,23.70
2018-06-08T10:08:30.234Z,27.27
2018-06-08T10:10:58.457Z,22.30
2018-06-08T10:13:26.436Z,22.63
2018-06-08T10:15:54.630Z,21.13
2018-06-08T10:18:22.861Z,19.67
2018-06-08T10:20:51.050Z,18.00
2018-06-08T10:23:19.237Z,15.70
2018-06-08T10:25:47.406Z,16.37
2018-06-08T10:28:15.616Z,16.37
2018-06-08T10:30:43.802Z,15.20
2018-06-08T10:33:12.034Z,17.63
2018-06-08T10:35:40.208Z,16.40
2018-06-08T10:38:08.404Z,13.83
2018-06-08T10:40:36.579Z,16.00
2018-06-08T10:43:04.777Z,16.83
2018-06-08T10:45:32.969Z,16.27
2018-06-08T10:48:01.149Z,17.80
2018-06-08T10:50:29.306Z,18.17
2018-06-08T10:52:57.489Z,16.80
2018-06-08T10:55:25.668Z,17.33
2018-06-08T10:57:53.850Z,15.57
2018-06-08T11:00:22.034Z,15.60
2018-06-08T11:02:50.318Z,18.27
2018-06-08T11:05:18.498Z,15.70
2018-06-08T11:07:46.692Z,13.93
2018-06-08T11:10:14.853Z,16.17
2018-06-08T11:12:43.092Z,16.03
2018-06-08T11:15:11.269Z,15.03
2018-06-08T11:17:39.453Z,14.97
2018-06-08T11:20:07.626Z,13.33
2018-06-08T11:22:35.805Z,14.50
2018-06-08T11:25:04.038Z,15.17
2018-06-08T11:27:32.250Z,15.90
2018-06-08T11:30:00.437Z,14.00
2018-06-08T11:32:28.617Z,13.73
2018-06-08T11:34:56.782Z,13.87
2018-06-08T11:37:24.965Z,16.67
2018-06-08T11:39:53.193Z,16.30
2018-06-08T11:42:21.387Z,15.23
2018-06-08T11:44:49.573Z,14.87
2018-06-08T11:47:17.736Z,16.43
2018-06-08T11:49:45.928Z,14.63
2018-06-08T11:52:14.097Z,15.67
2018-06-08T11:54:42.275Z,14.80
2018-06-08T11:57:10.447Z,15.43
2018-06-08T11:59:38.613Z,16.70
2018-06-08T12:02:06.847Z,15.77
2018-06-08T12:04:35.051Z,13.37
2018-06-08T12:07:03.235Z,14.73
2018-06-08T12:09:31.407Z,16.40
2018-06-08T12:11:59.607Z,15.40
2018-06-08T12:14:27.774Z,14.60
2018-06-08T12:16:55.945Z,15.43
2018-06-08T12:19:24.143Z,16.03
2018-06-08T12:21:52.398Z,16.67
2018-06-08T12:24:20.545Z,15.93
2018-06-08T12:26:48.733Z,17.40
2018-06-08T12:29:16.910Z,15.53
2018-06-08T12:31:44.874Z,16.70
2018-06-08T12:34:13.062Z,16.00
2018-06-08T12:36:41.227Z,16.40
2018-06-08T12:39:09.529Z,14.37
2018-06-08T12:41:37.702Z,15.17
2018-06-08T12:44:05.861Z,15.60
2018-06-08T12:46:34.102Z,16.07
2018-06-08T12:49:02.306Z,15.90
2018-06-08T12:51:30.478Z,16.00
2018-06-08T12:53:58.661Z,15.37
2018-06-08T12:56:26.857Z,15.10
2018-06-08T12:58:55.041Z,15.10
2018-06-08T13:01:23.209Z,14.87
2018-06-08T13:03:51.711Z,13.57
2018-06-08T13:06:19.903Z,14.47
2018-06-08T13:08:48.070Z,14.80
2018-06-08T13:11:16.230Z,14.53
2018-06-08T13:13:44.186Z,16.13
2018-06-08T13:16:12.357Z,15.70
2018-06-08T13:18:40.563Z,14.53
2018-06-08T13:21:08.783Z,13.00
2018-06-08T13:23:36.974Z,13.10
2018-06-08T13:26:05.146Z,13.20
2018-06-08T13:28:33.394Z,13.30
2018-06-08T13:31:01.590Z,13.47
2018-06-08T13:33:29.762Z,11.60
2018-06-08T13:35:57.718Z,10.67
2018-06-08T13:38:25.977Z,12.00
2018-06-08T13:40:54.160Z,11.73
2018-06-08T13:43:22.456Z,12.33
2018-06-08T13:45:50.625Z,11.27
2018-06-08T13:48:18.901Z,15.70
2018-06-08T13:50:47.114Z,16.97
2018-06-08T13:53:15.345Z,11.27
2018-06-08T13:55:43.689Z,11.60
2018-06-08T13:58:11.878Z,12.47
2018-06-08T14:00:40.109Z,12.23
2018-06-08T14:03:08.370Z,11.27
2018-06-08T14:05:36.620Z,11.23
2018-06-08T14:08:04.949Z,13.53
2018-06-08T14:10:33.253Z,13.17
2018-06-08T14:13:01.481Z,12.30
2018-06-08T14:15:29.728Z,12.50
2018-06-08T14:17:58.018Z,11.87
2018-06-08T14:20:26.314Z,12.03
2018-06-08T14:22:54.666Z,11.77
2018-06-08T14:25:22.951Z,12.67
2018-06-08T14:27:51.188Z,11.50
2018-06-08T14:30:19.438Z,12.50
2018-06-08T14:32:47.671Z,14.83
2018-06-08T14:35:15.885Z,11.00
2018-06-08T14:37:44.133Z,11.30
2018-06-08T14:40:12.407Z,10.63
2018-06-08T14:42:40.645Z,11.10
2018-06-08T14:45:08.881Z,10.00
2018-06-08T14:47:37.175Z,10.23
2018-06-08T14:50:05.437Z,10.17
2018-06-08T14:52:33.653Z,9.47
2018-06-08T14:55:01.982Z,11.40
2018-06-08T14:57:30.190Z,10.27
2018-06-08T14:59:58.429Z,11.50
2018-06-08T15:02:26.397Z,10.40
2018-06-08T15:04:54.653Z,10.23
2018-06-08T15:07:22.859Z,12.60
2018-06-08T15:09:51.045Z,11.80
2018-06-08T15:12:19.284Z,12.80
2018-06-08T15:14:47.526Z,10.33
2018-06-08T15:17:15.751Z,12.37
2018-06-08T15:19:50.556Z,10.90
2018-06-08T15:22:18.789Z,12.30
2018-06-08T15:24:47.086Z,12.37
2018-06-08T15:27:19.135Z,12.90
2018-06-08T15:29:47.401Z,12.17
2018-06-08T15:32:15.613Z,12.87
2018-06-08T15:34:43.919Z,10.13
2018-06-08T15:37:12.120Z,12.43
2018-06-08T15:39:40.360Z,11.03
2018-06-08T15:42:08.607Z,11.37
2018-06-08T15:44:36.821Z,11.37
2018-06-08T15:47:05.070Z,11.73
2018-06-08T15:49:33.263Z,11.23
2018-06-08T15:52:01.494Z,11.83
2018-06-08T15:54:29.670Z,11.30
2018-06-08T15:56:57.906Z,17.03
2018-06-08T15:59:26.135Z,14.27
2018-06-08T16:01:54.325Z,12.17
2018-06-08T16:04:22.689Z,12.80
2018-06-08T16:06:50.866Z,12.10
2018-06-08T16:09:19.078Z,12.80
2018-06-08T16:11:47.281Z,11.23
2018-06-08T16:14:15.458Z,11.60
2018-06-08T16:16:43.660Z,11.67
2018-06-08T16:19:11.868Z,11.27
2018-06-08T16:21:40.035Z,12.00
2018-06-08T16:24:08.637Z,10.87
2018-06-08T16:26:36.839Z,10.10
2018-06-08T16:29:05.014Z,10.73
2018-06-08T16:31:33.226Z,10.73
2018-06-08T16:34:01.524Z,11.63
2018-06-08T16:36:29.725Z,10.27
2018-06-08T16:38:57.898Z,11.10
2018-06-08T16:41:26.110Z,11.70
2018-06-08T16:43:54.301Z,10.40
2018-06-08T16:46:22.514Z,10.57
2018-06-08T16:48:50.687Z,11.83
2018-06-08T16:51:18.886Z,11.73
2018-06-08T16:53:47.040Z,7.37
2018-06-08T16:56:15.221Z,20.60
2018-06-08T16:58:43.430Z,19.30
2018-06-08T17:01:11.657Z,15.40
2018-06-08T17:03:39.846Z,17.40
2018-06-08T17:06:08.038Z,18.03
2018-06-08T17:08:36.191Z,11.97
2018-06-08T17:13:38.844Z,11.13
2018-06-08T17:16:07.080Z,13.80
2018-06-08T17:18:35.308Z,15.30
2018-06-08T17:21:03.515Z,16.60
2018-06-08T17:23:31.701Z,19.43
2018-06-08T17:25:59.963Z,14.60
2018-06-08T17:28:28.255Z,14.27
2018-06-08T17:30:56.429Z,14.23
2018-06-08T17:33:24.618Z,16.87
2018-06-08T17:35:52.861Z,22.07
2018-06-08T17:38:21.159Z,22.23
2018-06-08T17:40:49.405Z,15.97
2018-06-08T17:43:17.593Z,17.10
2018-06-08T17:45:45.788Z,11.30
2018-06-08T17:48:14.018Z,12.33
2018-06-08T17:50:42.267Z,11.70
2018-06-08T17:53:10.529Z,11.87
2018-06-08T17:55:38.885Z,12.17
2018-06-08T17:58:07.116Z,11.30
2018-06-08T18:00:35.354Z,13.03
2018-06-08T18:03:03.582Z,13.20
2018-06-08T18:05:31.809Z,14.60
2018-06-08T18:08:00.051Z,11.40
2018-06-08T18:10:28.284Z,15.23
2018-06-08T18:12:56.537Z,11.93
2018-06-08T18:15:24.779Z,11.50
2018-06-08T18:17:53.062Z,22.33
2018-06-08T18:20:21.241Z,9.40
2018-06-08T18:22:49.494Z,9.23
2018-06-08T18:25:17.694Z,12.07
2018-06-08T18:27:45.922Z,11.17
2018-06-08T18:30:14.118Z,9.50
2018-06-08T18:32:42.317Z,10.30
2018-06-08T18:35:10.572Z,10.90
2018-06-08T18:37:38.861Z,9.77
2018-06-08T18:40:07.122Z,9.63
2018-06-08T18:42:35.380Z,10.23
2018-06-08T18:47:38.263Z,11.33
2018-06-08T18:50:06.459Z,17.27
2018-06-08T18:52:34.632Z,9.07
2018-06-08T18:55:02.822Z,7.37
2018-06-08T18:57:31.156Z,7.57
2018-06-08T18:59:59.309Z,6.60
2018-06-08T19:02:27.619Z,7.57
2018-06-08T19:04:55.791Z,6.00
2018-06-08T19:07:23.992Z,7.93
2018-06-08T19:09:52.162Z,6.70
2018-06-08T19:12:20.395Z,5.83
2018-06-08T19:14:48.621Z,6.70
2018-06-08T19:17:16.783Z,5.50
2018-06-08T19:19:44.716Z,7.93
2018-06-08T19:22:12.905Z,4.80
2018-06-08T19:24:41.109Z,4.93
2018-06-08T19:27:09.286Z,7.80
2018-06-08T19:29:37.449Z,13.57
2018-06-08T19:32:05.626Z,10.30
2018-06-08T19:34:33.799Z,4.87
2018-06-08T19:37:01.746Z,6.73
2018-06-08T19:39:29.938Z,4.00
2018-06-08T19:41:58.121Z,5.77
2018-06-08T19:44:26.315Z,7.40
2018-06-08T19:46:54.505Z,6.47
2018-06-08T19:49:22.725Z,5.53
2018-06-08T19:51:50.920Z,3.73
2018-06-08T19:54:19.137Z,4.90
2018-06-08T19:56:47.369Z,4.97
2018-06-08T19:59:15.594Z,5.30
2018-06-08T20:01:43.790Z,7.20
2018-06-08T20:04:12.039Z,4.87
2018-06-08T20:06:40.276Z,4.47
2018-06-08T20:09:08.622Z,4.53
2018-06-08T20:11:37.069Z,5.93
2018-06-08T20:14:05.341Z,5.10
2018-06-08T20:16:33.550Z,4.67
2018-06-08T20:19:01.832Z,4.73
2018-06-08T20:21:30.309Z,5.13
2018-06-08T20:23:58.559Z,5.97
2018-06-08T20:26:26.838Z,7.63
2018-06-08T20:28:55.035Z,5.70
2018-06-08T20:31:23.285Z,6.10
2018-06-08T20:33:51.514Z,6.90
2018-06-08T20:36:19.762Z,5.27
2018-06-08T20:38:49.020Z,8.13
2018-06-08T20:41:17.232Z,6.17
2018-06-08T20:43:45.507Z,6.00
2018-06-08T20:46:13.782Z,5.50
2018-06-08T20:48:42.039Z,5.43
2018-06-08T20:51:10.254Z,5.63
2018-06-08T20:53:38.482Z,7.20
2018-06-08T20:56:06.753Z,6.30
2018-06-08T20:58:34.962Z,6.63
2018-06-08T21:01:03.190Z,8.47
2018-06-08T21:03:31.394Z,6.10
2018-06-08T21:05:59.640Z,7.17
2018-06-08T21:08:27.861Z,6.20
2018-06-08T21:10:56.101Z,6.60
2018-06-08T21:13:24.482Z,7.00
2018-06-08T21:15:52.713Z,5.90
2018-06-08T21:18:20.937Z,5.90
2018-06-08T21:20:49.137Z,6.20
2018-06-08T21:23:17.426Z,6.90
2018-06-08T21:25:45.681Z,6.57
2018-06-08T21:28:13.926Z,6.70
2018-06-08T21:30:42.137Z,7.60
2018-06-08T21:33:10.369Z,7.37
2018-06-08T21:35:38.670Z,9.10
2018-06-08T21:38:06.981Z,7.30
2018-06-08T21:40:35.245Z,8.10
2018-06-08T21:43:03.441Z,9.77
2018-06-08T21:45:31.694Z,9.50
2018-06-08T21:47:59.913Z,8.20
2018-06-08T21:50:28.142Z,8.93
2018-06-08T21:52:56.363Z,8.93
2018-06-08T21:55:24.698Z,8.53
2018-06-08T21:57:52.866Z,7.87
2018-06-08T22:00:21.075Z,7.77
2018-06-08T22:02:49.297Z,8.00
2018-06-08T22:05:17.511Z,8.50
2018-06-08T22:07:45.707Z,8.17
2018-06-08T22:10:13.922Z,7.47
2018-06-08T22:12:42.206Z,8.77
2018-06-08T22:15:10.473Z,7.70
2018-06-08T22:17:38.645Z,8.00
2018-06-08T22:20:06.923Z,8.47
2018-06-08T22:22:35.179Z,7.83
2018-06-08T22:25:03.500Z,9.07
2018-06-08T22:27:31.694Z,9.70
2018-06-08T22:29:59.869Z,8.40
2018-06-08T22:32:28.096Z,8.80
2018-06-08T22:34:56.328Z,10.30
2018-06-08T22:37:24.547Z,8.83
2018-06-08T22:39:52.741Z,9.03
2018-06-08T22:42:20.966Z,9.33
2018-06-08T22:44:49.287Z,10.60
2018-06-08T22:47:17.561Z,12.70
2018-06-08T22:49:45.733Z,12.00
2018-06-08T22:52:13.938Z,12.80
2018-06-08T22:54:42.129Z,10.37
2018-06-08T22:57:10.311Z,8.60
2018-06-08T22:59:38.457Z,10.10
2018-06-08T23:02:13.282Z,9.20
2018-06-08T23:04:41.562Z,12.40
2018-06-08T23:07:09.765Z,10.70
2018-06-08T23:09:37.942Z,10.30
2018-06-08T23:12:06.214Z,11.70
2018-06-08T23:14:34.391Z,9.60
2018-06-08T23:17:02.713Z,10.67
2018-06-08T23:19:30.937Z,9.90
2018-06-08T23:21:59.225Z,11.13
2018-06-08T23:24:27.518Z,11.80
2018-06-08T23:26:55.725Z,10.77
2018-06-08T23:29:23.967Z,11.40
2018-06-08T23:31:52.203Z,11.37
2018-06-08T23:34:20.478Z,10.60
2018-06-08T23:36:48.704Z,10.50
2018-06-08T23:39:16.938Z,9.33
2018-06-08T23:41:45.105Z,12.27
2018-06-08T23:44:13.310Z,10.40
2018-06-08T23:46:41.500Z,11.50
2018-06-08T23:49:09.774Z,10.13
2018-06-08T23:51:38.131Z,11.07
2018-06-08T23:54:06.369Z,10.70
2018-06-08T23:56:34.630Z,10.40
2018-06-08T23:59:02.843Z,11.17
